sensor_id;sensor_type;location;lat;lon;timestamp;P1;durP1;ratioP1;P2;durP2;ratioP2
38113;SDS011;23926;53.222;6.354;2022-11-15T00:00:47;42.65;;;25.25;;
38113;SDS011;23926;53.222;6.354;2022-11-15T00:03:13;40.33;;;24.10;;
38113;SDS011;23926;53.222;6.354;2022-11-15T00:05:40;35.47;;;22.77;;
38113;SDS011;23926;53.222;6.354;2022-11-15T00:08:06;30.42;;;20.45;;
38113;SDS011;23926;53.222;6.354;2022-11-15T00:10:31;35.47;;;23.05;;
38113;SDS011;23926;53.222;6.354;2022-11-15T00:12:56;34.92;;;21.98;;
38113;SDS011;23926;53.222;6.354;2022-11-15T00:15:22;35.13;;;21.50;;
38113;SDS011;23926;53.222;6.354;2022-11-15T00:17:50;32.13;;;19.98;;
38113;SDS011;23926;53.222;6.354;2022-11-15T00:20:19;36.25;;;20.88;;
38113;SDS011;23926;53.222;6.354;2022-11-15T00:22:44;32.40;;;19.27;;
38113;SDS011;23926;53.222;6.354;2022-11-15T00:25:09;33.28;;;20.13;;
38113;SDS011;23926;53.222;6.354;2022-11-15T00:27:35;34.10;;;20.33;;
38113;SDS011;23926;53.222;6.354;2022-11-15T00:30:00;32.22;;;20.10;;
38113;SDS011;23926;53.222;6.354;2022-11-15T00:32:26;37.22;;;22.05;;
38113;SDS011;23926;53.222;6.354;2022-11-15T00:34:56;42.25;;;25.55;;
38113;SDS011;23926;53.222;6.354;2022-11-15T00:37:21;39.10;;;22.77;;
38113;SDS011;23926;53.222;6.354;2022-11-15T00:39:46;35.10;;;22.40;;
38113;SDS011;23926;53.222;6.354;2022-11-15T00:42:12;38.85;;;23.70;;
38113;SDS011;23926;53.222;6.354;2022-11-15T00:44:37;38.42;;;21.88;;
38113;SDS011;23926;53.222;6.354;2022-11-15T00:47:02;37.47;;;22.13;;
38113;SDS011;23926;53.222;6.354;2022-11-15T00:49:28;37.58;;;23.02;;
38113;SDS011;23926;53.222;6.354;2022-11-15T00:51:53;35.40;;;22.60;;
38113;SDS011;23926;53.222;6.354;2022-11-15T00:54:19;37.65;;;23.38;;
38113;SDS011;23926;53.222;6.354;2022-11-15T00:56:44;38.63;;;23.58;;
38113;SDS011;23926;53.222;6.354;2022-11-15T00:59:09;40.38;;;23.65;;
38113;SDS011;23926;53.222;6.354;2022-11-15T01:01:35;34.40;;;22.58;;
38113;SDS011;23926;53.222;6.354;2022-11-15T01:04:00;35.95;;;22.92;;
38113;SDS011;23926;53.222;6.354;2022-11-15T01:06:25;35.97;;;23.50;;
38113;SDS011;23926;53.222;6.354;2022-11-15T01:08:51;40.45;;;25.35;;
38113;SDS011;23926;53.222;6.354;2022-11-15T01:11:16;37.28;;;22.20;;
38113;SDS011;23926;53.222;6.354;2022-11-15T01:13:41;37.28;;;23.98;;
38113;SDS011;23926;53.222;6.354;2022-11-15T01:16:08;35.13;;;23.27;;
38113;SDS011;23926;53.222;6.354;2022-11-15T01:18:35;35.42;;;22.40;;
38113;SDS011;23926;53.222;6.354;2022-11-15T01:21:04;36.05;;;22.80;;
38113;SDS011;23926;53.222;6.354;2022-11-15T01:23:37;34.70;;;22.55;;
38113;SDS011;23926;53.222;6.354;2022-11-15T01:26:03;33.92;;;22.17;;
38113;SDS011;23926;53.222;6.354;2022-11-15T01:28:31;34.03;;;22.80;;
38113;SDS011;23926;53.222;6.354;2022-11-15T01:30:58;37.85;;;23.33;;
38113;SDS011;23926;53.222;6.354;2022-11-15T01:33:24;34.40;;;22.52;;
38113;SDS011;23926;53.222;6.354;2022-11-15T01:35:50;39.80;;;22.75;;
38113;SDS011;23926;53.222;6.354;2022-11-15T01:38:15;37.78;;;23.08;;
38113;SDS011;23926;53.222;6.354;2022-11-15T01:40:40;39.45;;;24.92;;
38113;SDS011;23926;53.222;6.354;2022-11-15T01:43:22;42.42;;;24.95;;
38113;SDS011;23926;53.222;6.354;2022-11-15T01:45:51;36.90;;;24.83;;
38113;SDS011;23926;53.222;6.354;2022-11-15T01:48:21;38.50;;;24.30;;
38113;SDS011;23926;53.222;6.354;2022-11-15T01:50:49;39.97;;;24.42;;
38113;SDS011;23926;53.222;6.354;2022-11-15T01:53:16;39.03;;;25.05;;
38113;SDS011;23926;53.222;6.354;2022-11-15T01:55:43;39.88;;;24.35;;
38113;SDS011;23926;53.222;6.354;2022-11-15T01:58:09;40.33;;;25.75;;
38113;SDS011;23926;53.222;6.354;2022-11-15T02:00:35;40.80;;;26.10;;
38113;SDS011;23926;53.222;6.354;2022-11-15T02:03:00;39.03;;;24.35;;
38113;SDS011;23926;53.222;6.354;2022-11-15T02:05:27;40.65;;;24.25;;
38113;SDS011;23926;53.222;6.354;2022-11-15T02:07:53;44.53;;;25.83;;
38113;SDS011;23926;53.222;6.354;2022-11-15T02:10:20;44.17;;;26.63;;
38113;SDS011;23926;53.222;6.354;2022-11-15T02:12:48;41.05;;;24.90;;
38113;SDS011;23926;53.222;6.354;2022-11-15T02:15:14;42.35;;;24.73;;
38113;SDS011;23926;53.222;6.354;2022-11-15T02:20:46;35.40;;;24.23;;
38113;SDS011;23926;53.222;6.354;2022-11-15T02:37:16;41.50;;;24.65;;
38113;SDS011;23926;53.222;6.354;2022-11-15T02:42:55;42.80;;;25.38;;
38113;SDS011;23926;53.222;6.354;2022-11-15T02:45:48;44.97;;;25.95;;
38113;SDS011;23926;53.222;6.354;2022-11-15T02:48:19;44.65;;;25.58;;
38113;SDS011;23926;53.222;6.354;2022-11-15T02:50:46;45.78;;;24.52;;
38113;SDS011;23926;53.222;6.354;2022-11-15T02:53:12;47.10;;;25.33;;
38113;SDS011;23926;53.222;6.354;2022-11-15T02:55:41;44.75;;;25.50;;
38113;SDS011;23926;53.222;6.354;2022-11-15T03:01:16;47.00;;;25.17;;
38113;SDS011;23926;53.222;6.354;2022-11-15T03:06:50;35.95;;;21.70;;
38113;SDS011;23926;53.222;6.354;2022-11-15T03:12:15;41.85;;;23.45;;
38113;SDS011;23926;53.222;6.354;2022-11-15T03:14:56;41.67;;;23.25;;
38113;SDS011;23926;53.222;6.354;2022-11-15T03:17:27;37.40;;;22.17;;
38113;SDS011;23926;53.222;6.354;2022-11-15T03:19:58;43.20;;;23.42;;
38113;SDS011;23926;53.222;6.354;2022-11-15T03:22:26;42.53;;;24.55;;
38113;SDS011;23926;53.222;6.354;2022-11-15T03:24:54;48.38;;;24.90;;
38113;SDS011;23926;53.222;6.354;2022-11-15T03:27:25;42.92;;;23.38;;
38113;SDS011;23926;53.222;6.354;2022-11-15T03:29:57;43.05;;;22.95;;
38113;SDS011;23926;53.222;6.354;2022-11-15T03:32:28;41.13;;;23.17;;
38113;SDS011;23926;53.222;6.354;2022-11-15T03:34:57;39.88;;;23.63;;
38113;SDS011;23926;53.222;6.354;2022-11-15T03:38:29;44.72;;;23.25;;
38113;SDS011;23926;53.222;6.354;2022-11-15T03:40:47;40.58;;;23.08;;
38113;SDS011;23926;53.222;6.354;2022-11-15T03:45:54;43.13;;;23.92;;
38113;SDS011;23926;53.222;6.354;2022-11-15T03:48:25;41.90;;;23.10;;
38113;SDS011;23926;53.222;6.354;2022-11-15T03:50:55;44.70;;;25.08;;
38113;SDS011;23926;53.222;6.354;2022-11-15T03:53:21;42.10;;;23.48;;
38113;SDS011;23926;53.222;6.354;2022-11-15T03:55:46;46.05;;;24.15;;
38113;SDS011;23926;53.222;6.354;2022-11-15T03:58:12;44.30;;;23.38;;
38113;SDS011;23926;53.222;6.354;2022-11-15T04:00:37;45.58;;;23.88;;
38113;SDS011;23926;53.222;6.354;2022-11-15T04:03:02;42.50;;;22.98;;
38113;SDS011;23926;53.222;6.354;2022-11-15T04:05:28;42.03;;;23.27;;
38113;SDS011;23926;53.222;6.354;2022-11-15T04:07:53;40.47;;;22.65;;
38113;SDS011;23926;53.222;6.354;2022-11-15T04:10:19;45.63;;;22.48;;
38113;SDS011;23926;53.222;6.354;2022-11-15T04:12:44;44.67;;;22.60;;
38113;SDS011;23926;53.222;6.354;2022-11-15T04:15:14;39.97;;;23.05;;
38113;SDS011;23926;53.222;6.354;2022-11-15T04:17:49;43.72;;;22.10;;
38113;SDS011;23926;53.222;6.354;2022-11-15T04:20:20;49.28;;;24.25;;
38113;SDS011;23926;53.222;6.354;2022-11-15T04:23:07;51.90;;;24.92;;
38113;SDS011;23926;53.222;6.354;2022-11-15T04:25:54;50.97;;;25.10;;
38113;SDS011;23926;53.222;6.354;2022-11-15T04:28:21;51.35;;;24.67;;
38113;SDS011;23926;53.222;6.354;2022-11-15T04:30:47;52.83;;;24.58;;
38113;SDS011;23926;53.222;6.354;2022-11-15T04:33:12;47.33;;;24.05;;
38113;SDS011;23926;53.222;6.354;2022-11-15T04:35:38;46.97;;;23.98;;
38113;SDS011;23926;53.222;6.354;2022-11-15T04:38:04;53.88;;;23.95;;
38113;SDS011;23926;53.222;6.354;2022-11-15T04:40:31;47.67;;;25.15;;
38113;SDS011;23926;53.222;6.354;2022-11-15T04:42:56;46.88;;;23.77;;
38113;SDS011;23926;53.222;6.354;2022-11-15T04:45:22;49.45;;;23.80;;
38113;SDS011;23926;53.222;6.354;2022-11-15T04:47:47;45.83;;;22.60;;
38113;SDS011;23926;53.222;6.354;2022-11-15T04:50:13;48.67;;;24.33;;
38113;SDS011;23926;53.222;6.354;2022-11-15T04:52:43;45.17;;;23.85;;
38113;SDS011;23926;53.222;6.354;2022-11-15T04:55:14;40.97;;;22.48;;
38113;SDS011;23926;53.222;6.354;2022-11-15T04:57:40;47.85;;;23.35;;
38113;SDS011;23926;53.222;6.354;2022-11-15T05:00:06;45.53;;;22.92;;
38113;SDS011;23926;53.222;6.354;2022-11-15T05:02:37;42.28;;;21.67;;
38113;SDS011;23926;53.222;6.354;2022-11-15T05:05:21;47.33;;;21.67;;
38113;SDS011;23926;53.222;6.354;2022-11-15T05:07:46;47.63;;;22.38;;
38113;SDS011;23926;53.222;6.354;2022-11-15T05:10:12;44.20;;;22.60;;
38113;SDS011;23926;53.222;6.354;2022-11-15T05:12:37;44.00;;;22.08;;
38113;SDS011;23926;53.222;6.354;2022-11-15T05:15:03;44.40;;;23.60;;
38113;SDS011;23926;53.222;6.354;2022-11-15T05:17:28;48.95;;;23.95;;
38113;SDS011;23926;53.222;6.354;2022-11-15T05:19:54;48.03;;;24.38;;
38113;SDS011;23926;53.222;6.354;2022-11-15T05:22:20;46.80;;;23.92;;
38113;SDS011;23926;53.222;6.354;2022-11-15T05:24:45;55.70;;;25.15;;
38113;SDS011;23926;53.222;6.354;2022-11-15T05:27:10;50.53;;;24.80;;
38113;SDS011;23926;53.222;6.354;2022-11-15T05:29:36;56.85;;;26.88;;
38113;SDS011;23926;53.222;6.354;2022-11-15T05:32:03;50.45;;;24.13;;
38113;SDS011;23926;53.222;6.354;2022-11-15T05:34:30;54.13;;;25.60;;
38113;SDS011;23926;53.222;6.354;2022-11-15T05:36:56;52.38;;;24.08;;
38113;SDS011;23926;53.222;6.354;2022-11-15T05:39:21;47.42;;;22.85;;
38113;SDS011;23926;53.222;6.354;2022-11-15T05:41:48;53.53;;;25.58;;
38113;SDS011;23926;53.222;6.354;2022-11-15T05:44:18;55.90;;;26.35;;
38113;SDS011;23926;53.222;6.354;2022-11-15T05:46:46;53.55;;;25.90;;
38113;SDS011;23926;53.222;6.354;2022-11-15T05:49:16;48.42;;;24.98;;
38113;SDS011;23926;53.222;6.354;2022-11-15T05:51:45;52.67;;;25.88;;
38113;SDS011;23926;53.222;6.354;2022-11-15T05:54:13;46.85;;;24.17;;
38113;SDS011;23926;53.222;6.354;2022-11-15T05:56:39;53.00;;;25.80;;
38113;SDS011;23926;53.222;6.354;2022-11-15T05:59:05;54.83;;;24.63;;
38113;SDS011;23926;53.222;6.354;2022-11-15T06:01:32;57.92;;;26.17;;
38113;SDS011;23926;53.222;6.354;2022-11-15T06:03:57;54.50;;;25.77;;
38113;SDS011;23926;53.222;6.354;2022-11-15T06:06:23;53.20;;;26.70;;
38113;SDS011;23926;53.222;6.354;2022-11-15T06:08:48;61.58;;;29.05;;
38113;SDS011;23926;53.222;6.354;2022-11-15T06:11:14;53.22;;;26.55;;
38113;SDS011;23926;53.222;6.354;2022-11-15T06:13:39;56.88;;;26.00;;
38113;SDS011;23926;53.222;6.354;2022-11-15T06:16:04;54.05;;;26.55;;
38113;SDS011;23926;53.222;6.354;2022-11-15T06:18:34;58.65;;;27.35;;
38113;SDS011;23926;53.222;6.354;2022-11-15T06:21:00;60.30;;;27.58;;
38113;SDS011;23926;53.222;6.354;2022-11-15T06:23:26;62.90;;;26.63;;
38113;SDS011;23926;53.222;6.354;2022-11-15T06:25:52;53.08;;;27.05;;
38113;SDS011;23926;53.222;6.354;2022-11-15T06:28:17;72.03;;;28.65;;
38113;SDS011;23926;53.222;6.354;2022-11-15T06:30:43;60.47;;;27.70;;
38113;SDS011;23926;53.222;6.354;2022-11-15T06:33:08;66.80;;;30.55;;
38113;SDS011;23926;53.222;6.354;2022-11-15T06:35:34;63.15;;;28.50;;
38113;SDS011;23926;53.222;6.354;2022-11-15T06:38:04;74.65;;;29.58;;
38113;SDS011;23926;53.222;6.354;2022-11-15T06:40:32;62.55;;;28.35;;
38113;SDS011;23926;53.222;6.354;2022-11-15T06:42:59;57.22;;;28.10;;
38113;SDS011;23926;53.222;6.354;2022-11-15T06:45:25;56.05;;;26.42;;
38113;SDS011;23926;53.222;6.354;2022-11-15T06:47:50;61.05;;;27.80;;
38113;SDS011;23926;53.222;6.354;2022-11-15T06:50:16;59.72;;;28.33;;
38113;SDS011;23926;53.222;6.354;2022-11-15T06:52:41;63.22;;;29.02;;
38113;SDS011;23926;53.222;6.354;2022-11-15T06:55:07;49.15;;;24.65;;
38113;SDS011;23926;53.222;6.354;2022-11-15T06:57:33;61.17;;;29.50;;
38113;SDS011;23926;53.222;6.354;2022-11-15T07:00:07;76.88;;;32.03;;
38113;SDS011;23926;53.222;6.354;2022-11-15T07:02:59;53.20;;;26.95;;
38113;SDS011;23926;53.222;6.354;2022-11-15T07:05:25;60.30;;;29.23;;
38113;SDS011;23926;53.222;6.354;2022-11-15T07:07:54;59.83;;;28.98;;
38113;SDS011;23926;53.222;6.354;2022-11-15T07:10:28;59.47;;;28.25;;
38113;SDS011;23926;53.222;6.354;2022-11-15T07:12:57;59.03;;;30.17;;
38113;SDS011;23926;53.222;6.354;2022-11-15T07:15:23;63.00;;;29.75;;
38113;SDS011;23926;53.222;6.354;2022-11-15T07:17:51;61.22;;;30.70;;
38113;SDS011;23926;53.222;6.354;2022-11-15T07:20:19;58.15;;;29.42;;
38113;SDS011;23926;53.222;6.354;2022-11-15T07:22:55;56.15;;;29.40;;
38113;SDS011;23926;53.222;6.354;2022-11-15T07:25:24;56.47;;;28.33;;
38113;SDS011;23926;53.222;6.354;2022-11-15T07:28:00;59.65;;;29.95;;
38113;SDS011;23926;53.222;6.354;2022-11-15T07:30:26;51.17;;;27.67;;
38113;SDS011;23926;53.222;6.354;2022-11-15T07:32:58;57.15;;;28.60;;
38113;SDS011;23926;53.222;6.354;2022-11-15T07:35:25;55.47;;;29.35;;
38113;SDS011;23926;53.222;6.354;2022-11-15T07:40:21;61.65;;;29.60;;
38113;SDS011;23926;53.222;6.354;2022-11-15T07:42:46;52.60;;;28.63;;
38113;SDS011;23926;53.222;6.354;2022-11-15T07:45:20;51.50;;;27.88;;
38113;SDS011;23926;53.222;6.354;2022-11-15T07:47:46;46.42;;;27.85;;
38113;SDS011;23926;53.222;6.354;2022-11-15T07:50:15;55.58;;;28.08;;
38113;SDS011;23926;53.222;6.354;2022-11-15T07:52:45;49.85;;;28.48;;
38113;SDS011;23926;53.222;6.354;2022-11-15T07:55:11;45.97;;;27.50;;
38113;SDS011;23926;53.222;6.354;2022-11-15T07:57:36;45.35;;;25.92;;
38113;SDS011;23926;53.222;6.354;2022-11-15T08:00:03;50.45;;;27.63;;
38113;SDS011;23926;53.222;6.354;2022-11-15T08:02:29;52.47;;;28.38;;
38113;SDS011;23926;53.222;6.354;2022-11-15T08:04:55;59.22;;;29.52;;
38113;SDS011;23926;53.222;6.354;2022-11-15T08:07:20;49.72;;;26.95;;
38113;SDS011;23926;53.222;6.354;2022-11-15T08:09:45;47.67;;;25.88;;
38113;SDS011;23926;53.222;6.354;2022-11-15T08:12:11;53.72;;;27.58;;
38113;SDS011;23926;53.222;6.354;2022-11-15T08:14:36;48.75;;;25.90;;
38113;SDS011;23926;53.222;6.354;2022-11-15T08:17:02;46.47;;;26.90;;
38113;SDS011;23926;53.222;6.354;2022-11-15T08:19:27;50.72;;;26.00;;
38113;SDS011;23926;53.222;6.354;2022-11-15T08:21:52;43.22;;;24.92;;
38113;SDS011;23926;53.222;6.354;2022-11-15T08:24:18;47.47;;;26.23;;
38113;SDS011;23926;53.222;6.354;2022-11-15T08:26:44;48.75;;;28.17;;
38113;SDS011;23926;53.222;6.354;2022-11-15T08:29:09;46.25;;;25.90;;
38113;SDS011;23926;53.222;6.354;2022-11-15T08:31:35;44.13;;;26.90;;
38113;SDS011;23926;53.222;6.354;2022-11-15T08:34:01;44.22;;;25.58;;
38113;SDS011;23926;53.222;6.354;2022-11-15T08:36:30;47.20;;;27.73;;
38113;SDS011;23926;53.222;6.354;2022-11-15T08:38:56;50.20;;;26.83;;
38113;SDS011;23926;53.222;6.354;2022-11-15T08:41:25;41.40;;;25.38;;
38113;SDS011;23926;53.222;6.354;2022-11-15T08:43:54;43.75;;;25.20;;
38113;SDS011;23926;53.222;6.354;2022-11-15T08:46:20;45.85;;;26.77;;
38113;SDS011;23926;53.222;6.354;2022-11-15T08:48:45;41.40;;;24.13;;
38113;SDS011;23926;53.222;6.354;2022-11-15T08:51:11;45.42;;;26.73;;
38113;SDS011;23926;53.222;6.354;2022-11-15T08:53:36;52.15;;;28.52;;
38113;SDS011;23926;53.222;6.354;2022-11-15T08:56:02;42.33;;;24.33;;
38113;SDS011;23926;53.222;6.354;2022-11-15T08:58:31;32.97;;;21.60;;
38113;SDS011;23926;53.222;6.354;2022-11-15T09:00:57;40.78;;;24.05;;
38113;SDS011;23926;53.222;6.354;2022-11-15T09:03:22;42.72;;;24.42;;
38113;SDS011;23926;53.222;6.354;2022-11-15T09:05:47;36.50;;;22.55;;
38113;SDS011;23926;53.222;6.354;2022-11-15T09:08:13;40.90;;;24.25;;
38113;SDS011;23926;53.222;6.354;2022-11-15T09:10:38;37.42;;;22.73;;
38113;SDS011;23926;53.222;6.354;2022-11-15T09:13:03;34.83;;;23.00;;
38113;SDS011;23926;53.222;6.354;2022-11-15T09:15:29;35.35;;;23.02;;
38113;SDS011;23926;53.222;6.354;2022-11-15T09:17:57;36.58;;;23.50;;
38113;SDS011;23926;53.222;6.354;2022-11-15T09:20:23;34.83;;;21.90;;
38113;SDS011;23926;53.222;6.354;2022-11-15T09:22:48;36.22;;;23.35;;
38113;SDS011;23926;53.222;6.354;2022-11-15T09:25:15;38.85;;;24.45;;
38113;SDS011;23926;53.222;6.354;2022-11-15T09:27:40;38.92;;;23.33;;
38113;SDS011;23926;53.222;6.354;2022-11-15T09:30:06;36.55;;;21.63;;
38113;SDS011;23926;53.222;6.354;2022-11-15T09:32:32;36.25;;;22.63;;
38113;SDS011;23926;53.222;6.354;2022-11-15T09:34:57;40.35;;;23.15;;
38113;SDS011;23926;53.222;6.354;2022-11-15T09:37:22;33.92;;;22.00;;
38113;SDS011;23926;53.222;6.354;2022-11-15T09:39:48;39.47;;;22.95;;
38113;SDS011;23926;53.222;6.354;2022-11-15T09:45:34;37.25;;;22.00;;
38113;SDS011;23926;53.222;6.354;2022-11-15T09:50:35;36.33;;;21.75;;
38113;SDS011;23926;53.222;6.354;2022-11-15T09:53:27;30.50;;;21.02;;
38113;SDS011;23926;53.222;6.354;2022-11-15T09:56:03;32.28;;;20.88;;
38113;SDS011;23926;53.222;6.354;2022-11-15T09:58:52;33.70;;;20.70;;
38113;SDS011;23926;53.222;6.354;2022-11-15T10:04:29;33.65;;;21.92;;
38113;SDS011;23926;53.222;6.354;2022-11-15T10:07:04;33.83;;;20.35;;
38113;SDS011;23926;53.222;6.354;2022-11-15T10:09:42;33.03;;;20.38;;
38113;SDS011;23926;53.222;6.354;2022-11-15T10:12:18;32.03;;;20.63;;
38113;SDS011;23926;53.222;6.354;2022-11-15T10:14:45;31.23;;;19.38;;
38113;SDS011;23926;53.222;6.354;2022-11-15T10:20:05;33.30;;;20.67;;
38113;SDS011;23926;53.222;6.354;2022-11-15T10:22:46;31.05;;;19.70;;
38113;SDS011;23926;53.222;6.354;2022-11-15T10:27:47;32.58;;;19.30;;
38113;SDS011;23926;53.222;6.354;2022-11-15T10:30:20;28.25;;;18.52;;
38113;SDS011;23926;53.222;6.354;2022-11-15T10:32:46;30.17;;;19.25;;
38113;SDS011;23926;53.222;6.354;2022-11-15T10:35:26;28.90;;;18.67;;
38113;SDS011;23926;53.222;6.354;2022-11-15T10:38:08;29.55;;;18.88;;
38113;SDS011;23926;53.222;6.354;2022-11-15T10:40:35;26.15;;;18.15;;
38113;SDS011;23926;53.222;6.354;2022-11-15T10:45:30;29.58;;;19.10;;
38113;SDS011;23926;53.222;6.354;2022-11-15T10:50:39;28.63;;;18.73;;
38113;SDS011;23926;53.222;6.354;2022-11-15T10:55:42;26.98;;;16.83;;
38113;SDS011;23926;53.222;6.354;2022-11-15T11:04:09;26.35;;;16.83;;
38113;SDS011;23926;53.222;6.354;2022-11-15T11:06:51;30.73;;;18.73;;
38113;SDS011;23926;53.222;6.354;2022-11-15T11:09:22;22.45;;;15.70;;
38113;SDS011;23926;53.222;6.354;2022-11-15T11:12:02;23.33;;;15.55;;
38113;SDS011;23926;53.222;6.354;2022-11-15T11:14:29;31.15;;;16.13;;
38113;SDS011;23926;53.222;6.354;2022-11-15T11:25:40;21.25;;;14.18;;
38113;SDS011;23926;53.222;6.354;2022-11-15T11:34:29;21.23;;;12.98;;
38113;SDS011;23926;53.222;6.354;2022-11-15T11:37:14;22.98;;;13.68;;
38113;SDS011;23926;53.222;6.354;2022-11-15T11:39:53;19.85;;;12.05;;
38113;SDS011;23926;53.222;6.354;2022-11-15T11:50:36;16.10;;;11.95;;
38113;SDS011;23926;53.222;6.354;2022-11-15T11:53:46;20.55;;;12.02;;
38113;SDS011;23926;53.222;6.354;2022-11-15T11:56:08;17.50;;;11.73;;
38113;SDS011;23926;53.222;6.354;2022-11-15T11:59:07;16.52;;;10.30;;
38113;SDS011;23926;53.222;6.354;2022-11-15T12:01:43;14.82;;;9.73;;
38113;SDS011;23926;53.222;6.354;2022-11-15T12:06:42;16.23;;;9.85;;
38113;SDS011;23926;53.222;6.354;2022-11-15T12:17:20;11.15;;;6.93;;
38113;SDS011;23926;53.222;6.354;2022-11-15T12:19:48;10.70;;;7.32;;
38113;SDS011;23926;53.222;6.354;2022-11-15T12:22:25;9.27;;;6.55;;
38113;SDS011;23926;53.222;6.354;2022-11-15T12:27:36;10.25;;;5.70;;
38113;SDS011;23926;53.222;6.354;2022-11-15T12:38:02;13.20;;;6.50;;
38113;SDS011;23926;53.222;6.354;2022-11-15T12:40:30;12.30;;;6.90;;
38113;SDS011;23926;53.222;6.354;2022-11-15T12:45:34;11.27;;;5.70;;
38113;SDS011;23926;53.222;6.354;2022-11-15T12:56:34;6.97;;;5.15;;
38113;SDS011;23926;53.222;6.354;2022-11-15T12:58:53;9.52;;;5.05;;
38113;SDS011;23926;53.222;6.354;2022-11-15T13:04:13;8.23;;;4.32;;
38113;SDS011;23926;53.222;6.354;2022-11-15T13:12:10;10.43;;;5.22;;
38113;SDS011;23926;53.222;6.354;2022-11-15T13:15:40;6.97;;;4.88;;
38113;SDS011;23926;53.222;6.354;2022-11-15T13:17:48;11.20;;;4.03;;
38113;SDS011;23926;53.222;6.354;2022-11-15T13:22:41;7.70;;;4.22;;
38113;SDS011;23926;53.222;6.354;2022-11-15T13:28:01;7.13;;;4.70;;
38113;SDS011;23926;53.222;6.354;2022-11-15T13:33:37;7.93;;;4.78;;
38113;SDS011;23926;53.222;6.354;2022-11-15T13:36:14;6.50;;;4.32;;
38113;SDS011;23926;53.222;6.354;2022-11-15T13:38:45;8.60;;;4.18;;
38113;SDS011;23926;53.222;6.354;2022-11-15T13:41:24;5.85;;;4.00;;
38113;SDS011;23926;53.222;6.354;2022-11-15T13:43:52;7.55;;;4.30;;
38113;SDS011;23926;53.222;6.354;2022-11-15T13:46:20;6.28;;;4.38;;
38113;SDS011;23926;53.222;6.354;2022-11-15T13:48:58;6.18;;;4.10;;
38113;SDS011;23926;53.222;6.354;2022-11-15T13:54:23;9.20;;;4.28;;
38113;SDS011;23926;53.222;6.354;2022-11-15T13:56:53;5.40;;;3.97;;
38113;SDS011;23926;53.222;6.354;2022-11-15T13:59:34;8.18;;;4.70;;
38113;SDS011;23926;53.222;6.354;2022-11-15T14:02:11;7.47;;;4.05;;
38113;SDS011;23926;53.222;6.354;2022-11-15T14:04:45;7.22;;;4.72;;
38113;SDS011;23926;53.222;6.354;2022-11-15T14:07:17;7.85;;;4.93;;
38113;SDS011;23926;53.222;6.354;2022-11-15T14:09:44;9.27;;;4.57;;
38113;SDS011;23926;53.222;6.354;2022-11-15T14:12:30;8.85;;;4.93;;
38113;SDS011;23926;53.222;6.354;2022-11-15T14:14:58;6.75;;;4.03;;
38113;SDS011;23926;53.222;6.354;2022-11-15T14:19:53;7.35;;;4.38;;
38113;SDS011;23926;53.222;6.354;2022-11-15T14:22:20;7.93;;;4.22;;
38113;SDS011;23926;53.222;6.354;2022-11-15T14:27:44;8.10;;;4.13;;
38113;SDS011;23926;53.222;6.354;2022-11-15T14:30:30;8.80;;;4.60;;
38113;SDS011;23926;53.222;6.354;2022-11-15T14:32:55;7.40;;;4.00;;
38113;SDS011;23926;53.222;6.354;2022-11-15T14:35:21;5.68;;;4.35;;
38113;SDS011;23926;53.222;6.354;2022-11-15T14:37:47;6.93;;;3.40;;
38113;SDS011;23926;53.222;6.354;2022-11-15T14:40:14;5.97;;;3.85;;
38113;SDS011;23926;53.222;6.354;2022-11-15T14:42:44;8.77;;;4.10;;
38113;SDS011;23926;53.222;6.354;2022-11-15T14:45:14;10.27;;;4.93;;
38113;SDS011;23926;53.222;6.354;2022-11-15T14:47:41;7.75;;;3.65;;
38113;SDS011;23926;53.222;6.354;2022-11-15T14:50:18;6.72;;;3.55;;
38113;SDS011;23926;53.222;6.354;2022-11-15T14:52:44;5.43;;;3.00;;
38113;SDS011;23926;53.222;6.354;2022-11-15T14:55:12;5.30;;;3.10;;
38113;SDS011;23926;53.222;6.354;2022-11-15T14:57:48;5.43;;;3.00;;
38113;SDS011;23926;53.222;6.354;2022-11-15T15:00:14;6.82;;;3.10;;
38113;SDS011;23926;53.222;6.354;2022-11-15T15:02:41;4.43;;;3.22;;
38113;SDS011;23926;53.222;6.354;2022-11-15T15:07:42;6.32;;;3.20;;
38113;SDS011;23926;53.222;6.354;2022-11-15T15:10:08;2.80;;;2.55;;
38113;SDS011;23926;53.222;6.354;2022-11-15T15:12:33;5.30;;;3.03;;
38113;SDS011;23926;53.222;6.354;2022-11-15T15:15:02;3.90;;;2.67;;
38113;SDS011;23926;53.222;6.354;2022-11-15T15:17:58;5.03;;;2.67;;
38113;SDS011;23926;53.222;6.354;2022-11-15T15:20:33;4.72;;;2.42;;
38113;SDS011;23926;53.222;6.354;2022-11-15T15:23:00;4.40;;;2.65;;
38113;SDS011;23926;53.222;6.354;2022-11-15T15:25:32;5.55;;;2.67;;
38113;SDS011;23926;53.222;6.354;2022-11-15T15:28:00;4.85;;;2.45;;
38113;SDS011;23926;53.222;6.354;2022-11-15T15:30:30;6.35;;;2.83;;
38113;SDS011;23926;53.222;6.354;2022-11-15T15:32:57;4.60;;;2.90;;
38113;SDS011;23926;53.222;6.354;2022-11-15T15:35:27;3.97;;;2.50;;
38113;SDS011;23926;53.222;6.354;2022-11-15T15:38:04;4.15;;;2.70;;
38113;SDS011;23926;53.222;6.354;2022-11-15T15:40:30;5.00;;;2.83;;
38113;SDS011;23926;53.222;6.354;2022-11-15T15:42:57;5.15;;;2.90;;
38113;SDS011;23926;53.222;6.354;2022-11-15T15:45:25;4.63;;;2.75;;
38113;SDS011;23926;53.222;6.354;2022-11-15T15:47:55;7.03;;;2.72;;
38113;SDS011;23926;53.222;6.354;2022-11-15T15:50:27;3.03;;;2.47;;
38113;SDS011;23926;53.222;6.354;2022-11-15T15:52:58;3.05;;;2.75;;
38113;SDS011;23926;53.222;6.354;2022-11-15T15:55:25;10.20;;;2.90;;
38113;SDS011;23926;53.222;6.354;2022-11-15T15:57:52;3.10;;;2.80;;
38113;SDS011;23926;53.222;6.354;2022-11-15T16:00:20;6.25;;;3.08;;
38113;SDS011;23926;53.222;6.354;2022-11-15T16:02:51;4.90;;;3.05;;
38113;SDS011;23926;53.222;6.354;2022-11-15T16:05:31;5.05;;;3.33;;
38113;SDS011;23926;53.222;6.354;2022-11-15T16:07:56;6.70;;;3.43;;
38113;SDS011;23926;53.222;6.354;2022-11-15T16:10:36;4.65;;;3.17;;
38113;SDS011;23926;53.222;6.354;2022-11-15T16:13:04;4.45;;;3.40;;
38113;SDS011;23926;53.222;6.354;2022-11-15T16:15:30;6.57;;;3.55;;
38113;SDS011;23926;53.222;6.354;2022-11-15T16:18:08;5.28;;;4.10;;
38113;SDS011;23926;53.222;6.354;2022-11-15T16:20:43;6.32;;;4.28;;
38113;SDS011;23926;53.222;6.354;2022-11-15T16:23:17;5.97;;;4.00;;
38113;SDS011;23926;53.222;6.354;2022-11-15T16:25:49;5.88;;;4.78;;
38113;SDS011;23926;53.222;6.354;2022-11-15T16:28:21;6.20;;;4.90;;
38113;SDS011;23926;53.222;6.354;2022-11-15T16:31:03;6.57;;;5.00;;
38113;SDS011;23926;53.222;6.354;2022-11-15T16:33:32;6.32;;;4.57;;
38113;SDS011;23926;53.222;6.354;2022-11-15T16:35:57;6.07;;;5.45;;
38113;SDS011;23926;53.222;6.354;2022-11-15T16:38:41;8.23;;;5.40;;
38113;SDS011;23926;53.222;6.354;2022-11-15T16:41:06;10.38;;;6.32;;
38113;SDS011;23926;53.222;6.354;2022-11-15T16:43:32;7.50;;;5.68;;
38113;SDS011;23926;53.222;6.354;2022-11-15T16:46:01;7.68;;;6.03;;
38113;SDS011;23926;53.222;6.354;2022-11-15T16:48:52;8.32;;;6.35;;
38113;SDS011;23926;53.222;6.354;2022-11-15T16:51:18;8.48;;;6.22;;
38113;SDS011;23926;53.222;6.354;2022-11-15T16:53:44;6.55;;;5.93;;
38113;SDS011;23926;53.222;6.354;2022-11-15T16:56:30;8.23;;;5.85;;
38113;SDS011;23926;53.222;6.354;2022-11-15T16:58:56;10.63;;;6.13;;
38113;SDS011;23926;53.222;6.354;2022-11-15T17:04:04;7.60;;;6.20;;
38113;SDS011;23926;53.222;6.354;2022-11-15T17:06:41;9.20;;;6.65;;
38113;SDS011;23926;53.222;6.354;2022-11-15T17:09:17;6.78;;;6.07;;